Overview Statistics Trail Chart Weather Telemetry Raw packets
 

This is the latest recevied weather packets stored in our database for station/object F5IOR. If no packets are shown the sender has not sent any weather packets the latest 10 day(s).

<< 12 13 14 15 16 >>
Time Temp. Humidity Pressure Rain* Wind** Luminosity Snow
1787834179 28.89° C 48% 982.2 hPa 32.77 mm - - -
1787832379 30.56° C 42% 982.5 hPa 32.77 mm - - -
1787830579 30° C 43% 982.7 hPa 32.77 mm - - -
1787828779 30° C 40% 983.7 hPa 3.81 mm - - -
1787826979 29.44° C 41% 983.7 hPa 3.81 mm - - -
1787825179 27.78° C 43% 983.9 hPa 3.81 mm - - -
1787823379 27.78° C 43% 984 hPa 3.81 mm - - -
1787822419 26.67° C 43% 984.2 hPa 3.81 mm - - -
1787821459 26.67° C 44% 984.2 hPa 3.81 mm - - -
1787820499 26.11° C 45% 984.2 hPa 3.81 mm - - -
1787819539 25.56° C 49% 984.1 hPa 3.81 mm - - -
1787819059 25.56° C 49% 984.1 hPa 3.81 mm - - -
1787818579 25.56° C 49% 984.1 hPa 3.81 mm - - -
1787818099 24.44° C 53% 984.1 hPa 9.65 mm - - -
1787817619 24.44° C 53% 984.1 hPa 9.65 mm - - -
1787817379 23.89° C 56% 984 hPa 9.65 mm - - -
1787817139 23.89° C 56% 984 hPa 9.65 mm - - -
1787816899 23.89° C 56% 984 hPa 9.65 mm - - -
1787816661 23.89° C 56% 984 hPa 9.65 mm - - -
1787816539 23.89° C 56% 984 hPa 9.65 mm - - -
1787816419 23.89° C 56% 984 hPa 9.65 mm - - -
1787816299 23.89° C 56% 984 hPa 9.65 mm - - -
1787816179 23.89° C 56% 984 hPa 9.65 mm - - -
1787816119 23.89° C 56% 984 hPa 9.65 mm - - -
1787816059 23.89° C 56% 984 hPa 9.65 mm - - -

* Rain latest hour (hover to see other rain measurements)
** Current wind speed in m/s (hover to see current wind gust speed)